Time;durP1;ratioP1;P1;durP2;ratioP2;P2;SDS_P1;SDS_P2;PMS_P1;PMS_P2;Temp;Humidity;BMP_temperature;BMP_pressure;BME280_temperature;BME280_humidity;BME280_pressure;Samples;Min_cycle;Max_cycle;Signal;HPM_P1;HPM_P2
2022/02/06 00:00:59;;;;;;;16.90;3.55;;;7.70;99.90;;;;;;5041310;28;20037;-82
2022/02/06 00:03:26;;;;;;;17.15;3.25;;;7.80;99.90;;;;;;5022107;28;20453;-82
2022/02/06 00:05:51;;;;;;;15.52;2.75;;;7.70;99.90;;;;;;5036780;28;20041;-82
2022/02/06 00:08:17;;;;;;;23.10;4.00;;;7.70;99.90;;;;;;5035791;28;20037;-82
2022/02/06 00:10:43;;;;;;;31.50;4.82;;;7.80;99.90;;;;;;5039977;28;20040;-82
2022/02/06 00:13:09;;;;;;;18.30;3.65;;;7.80;99.90;;;;;;5037805;28;20045;-82
2022/02/06 00:15:35;;;;;;;25.67;4.35;;;7.70;99.90;;;;;;5037191;28;20037;-82
2022/02/06 00:18:00;;;;;;;20.95;3.92;;;7.80;99.90;;;;;;5037457;28;20095;-82
2022/02/06 00:20:33;;;;;;;29.63;4.32;;;8.20;99.90;;;;;;5036007;28;20098;-82
2022/02/06 00:23:03;;;;;;;25.95;4.07;;;7.80;99.90;;;;;;5033403;28;20041;-82
2022/02/06 00:26:07;;;;;;;24.73;3.78;;;7.80;99.90;;;;;;5017739;28;20412;-82
2022/02/06 00:38:01;;;;;;;26.90;4.00;;;7.80;99.90;;;;;;5041319;28;20099;-82
2022/02/06 00:39:04;;;;;;;28.23;4.55;;;7.90;99.90;;;;;;5040223;28;20044;-82
2022/02/06 00:41:30;;;;;;;20.85;3.25;;;7.90;99.90;;;;;;5039037;28;20061;-82
2022/02/06 00:44:02;;;;;;;29.58;4.20;;;7.90;99.90;;;;;;5022040;28;20051;-82
2022/02/06 00:46:27;;;;;;;32.33;4.90;;;7.80;99.90;;;;;;4998494;28;20047;-81
2022/02/06 00:48:57;;;;;;;32.20;4.35;;;7.80;99.90;;;;;;5047432;28;20036;-82
2022/02/06 00:51:39;;;;;;;23.48;5.75;;;7.90;99.90;;;;;;5024656;28;20070;-82
2022/02/06 00:54:05;;;;;;;28.70;4.40;;;7.90;99.90;;;;;;5029851;28;20037;-82
2022/02/06 00:56:31;;;;;;;25.55;5.30;;;7.90;99.90;;;;;;5026306;28;20040;-82
2022/02/06 00:58:57;;;;;;;21.48;4.00;;;7.90;99.90;;;;;;5027010;28;20123;-82
2022/02/06 01:01:22;;;;;;;26.65;4.20;;;7.90;99.90;;;;;;5028633;28;20103;-82
2022/02/06 01:03:48;;;;;;;29.45;4.55;;;8.00;99.90;;;;;;5042313;28;20544;-82
2022/02/06 01:06:17;;;;;;;33.05;4.80;;;8.00;99.90;;;;;;5045627;28;20052;-83
2022/02/06 01:08:45;;;;;;;28.05;5.40;;;8.00;99.90;;;;;;5042344;28;20039;-82
2022/02/06 01:11:11;;;;;;;24.15;3.97;;;8.00;99.90;;;;;;5024649;28;20044;-82
2022/02/06 01:13:50;;;;;;;29.10;4.20;;;8.00;99.90;;;;;;5032374;28;20075;-82
2022/02/06 01:16:24;;;;;;;25.58;4.45;;;8.00;99.90;;;;;;5025463;28;20037;-82
2022/02/06 01:18:58;;;;;;;34.30;4.35;;;8.00;99.90;;;;;;5030209;28;20474;-81
2022/02/06 01:24:08;;;;;;;31.33;4.32;;;8.00;99.90;;;;;;5040098;28;20684;-83
2022/02/06 01:26:45;;;;;;;37.65;5.15;;;8.00;99.90;;;;;;5025353;28;20035;-82
2022/02/06 01:29:39;;;;;;;25.95;4.57;;;8.00;99.90;;;;;;5024584;28;20051;-82
2022/02/06 01:32:12;;;;;;;26.92;3.75;;;8.10;99.90;;;;;;5055383;28;20809;-82
2022/02/06 01:40:00;;;;;;;34.10;5.53;;;8.10;99.90;;;;;;5037184;28;20439;-82
2022/02/06 01:42:41;;;;;;;27.75;6.35;;;8.00;99.90;;;;;;5030730;28;20047;-83
2022/02/06 02:01:33;;;;;;;27.98;6.63;;;8.00;99.90;;;;;;5039285;28;20052;-81
2022/02/06 02:05:15;;;;;;;32.63;5.18;;;8.10;99.90;;;;;;5038821;28;20404;-82
2022/02/06 02:12:24;;;;;;;35.58;4.78;;;8.00;99.90;;;;;;5039776;28;20044;-82
2022/02/06 02:20:25;;;;;;;24.90;4.60;;;8.00;99.90;;;;;;5042473;28;20455;-82
2022/02/06 02:31:09;;;;;;;29.50;5.00;;;8.10;99.90;;;;;;5039157;28;20055;-82
2022/02/06 02:47:17;;;;;;;31.13;5.97;;;8.00;99.90;;;;;;5038658;28;20049;-82
2022/02/06 02:49:52;;;;;;;29.70;5.60;;;8.10;99.90;;;;;;5026268;28;20404;-82
2022/02/06 02:53:13;;;;;;;32.10;4.97;;;8.10;99.90;;;;;;5022220;28;20124;-82
2022/02/06 02:55:29;;;;;;;29.52;4.97;;;8.10;99.90;;;;;;5033620;28;20041;-82
2022/02/06 02:58:14;;;;;;;41.35;7.15;;;8.10;99.90;;;;;;5053257;28;20047;-81
2022/02/06 03:03:31;;;;;;;22.90;4.13;;;8.30;99.90;;;;;;5044387;28;20032;-82
2022/02/06 03:05:59;;;;;;;32.60;6.32;;;8.10;99.90;;;;;;5027314;28;20437;-82
2022/02/06 03:08:25;;;;;;;39.47;5.28;;;8.10;99.90;;;;;;5021482;28;20040;-82
2022/02/06 03:10:53;;;;;;;28.33;5.40;;;8.10;99.90;;;;;;5024474;28;20037;-81
2022/02/06 03:13:22;;;;;;;30.10;4.40;;;8.10;99.90;;;;;;5026341;28;20086;-81
2022/02/06 03:16:01;;;;;;;30.50;4.78;;;8.10;99.90;;;;;;5028743;28;20072;-82
2022/02/06 03:18:31;;;;;;;26.08;5.72;;;8.10;99.90;;;;;;5023491;28;20047;-81
2022/02/06 03:21:00;;;;;;;31.27;4.53;;;8.10;99.90;;;;;;5027096;28;20037;-82
2022/02/06 03:23:25;;;;;;;35.30;5.60;;;8.10;99.90;;;;;;5026086;28;20028;-81
2022/02/06 03:25:54;;;;;;;37.20;5.32;;;8.00;99.90;;;;;;5024451;28;20037;-82
2022/02/06 03:28:24;;;;;;;32.90;4.88;;;8.10;99.90;;;;;;5025720;28;20077;-82
2022/02/06 03:30:51;;;;;;;28.13;5.22;;;8.10;99.90;;;;;;5029246;28;20560;-82
2022/02/06 03:33:18;;;;;;;35.58;6.45;;;8.10;99.90;;;;;;5070643;28;20466;-82
2022/02/06 03:35:44;;;;;;;27.55;4.00;;;8.10;99.90;;;;;;5043254;28;20102;-82
2022/02/06 03:38:09;;;;;;;36.95;5.38;;;8.10;99.90;;;;;;5038287;28;20451;-82
2022/02/06 03:40:49;;;;;;;30.52;5.57;;;8.10;99.90;;;;;;5056978;28;20037;-82
2022/02/06 03:43:19;;;;;;;29.77;4.25;;;8.10;99.90;;;;;;5024571;28;20079;-82
2022/02/06 03:45:57;;;;;;;30.98;5.95;;;8.10;99.90;;;;;;5028577;28;20040;-82
2022/02/06 03:48:29;;;;;;;24.67;5.10;;;8.10;99.90;;;;;;5061814;28;20048;-82
2022/02/06 03:51:00;;;;;;;40.03;7.68;;;8.10;99.90;;;;;;5037934;28;20121;-82
2022/02/06 03:53:27;;;;;;;31.88;5.50;;;8.10;99.90;;;;;;5042025;28;20049;-82
2022/02/06 03:55:54;;;;;;;28.83;4.30;;;8.10;99.90;;;;;;5041580;28;21037;-82
2022/02/06 03:58:20;;;;;;;26.23;4.25;;;8.20;99.90;;;;;;5040930;28;20064;-82
2022/02/06 04:00:46;;;;;;;28.20;4.35;;;8.20;99.90;;;;;;5026164;28;20433;-82
2022/02/06 04:03:12;;;;;;;22.83;4.05;;;8.20;99.90;;;;;;5042362;28;20113;-82
2022/02/06 04:05:39;;;;;;;30.90;5.88;;;8.10;99.90;;;;;;5028697;28;20041;-82
2022/02/06 04:08:08;;;;;;;31.10;4.88;;;8.10;99.90;;;;;;5027319;28;20047;-82
2022/02/06 04:10:41;;;;;;;25.90;4.60;;;8.70;99.90;;;;;;5025457;28;20059;-82
2022/02/06 04:13:14;;;;;;;29.67;4.22;;;8.20;99.90;;;;;;5059703;28;20056;-82
2022/02/06 04:15:42;;;;;;;27.42;4.05;;;8.10;99.90;;;;;;5041563;28;20129;-83
2022/02/06 04:18:13;;;;;;;24.63;4.05;;;8.60;99.90;;;;;;5057369;28;20166;-82
2022/02/06 04:20:40;;;;;;;29.85;5.13;;;8.20;99.90;;;;;;5024238;28;20183;-83
2022/02/06 04:23:06;;;;;;;23.27;4.00;;;8.20;99.90;;;;;;5024286;28;20076;-81
2022/02/06 04:25:32;;;;;;;34.33;4.68;;;8.20;99.90;;;;;;5028346;28;20040;-82
2022/02/06 04:27:58;;;;;;;21.08;3.72;;;8.20;99.90;;;;;;5056223;28;20037;-82
2022/02/06 04:30:23;;;;;;;23.85;4.45;;;8.20;99.90;;;;;;5039450;28;20045;-82
2022/02/06 04:32:49;;;;;;;26.02;3.45;;;8.20;99.90;;;;;;5025072;28;20044;-81
2022/02/06 04:35:18;;;;;;;22.05;3.78;;;8.20;99.90;;;;;;5041757;28;20071;-82
2022/02/06 04:40:20;;;;;;;23.75;4.47;;;8.20;99.90;;;;;;5041305;28;20045;-82
2022/02/06 05:14:50;;;;;;;26.70;4.75;;;8.30;99.90;;;;;;5039418;28;20056;-82
2022/02/06 05:20:31;;;;;;;31.85;4.95;;;8.20;99.90;;;;;;5039806;28;20063;-82
2022/02/06 05:25:52;;;;;;;32.97;6.00;;;8.30;99.90;;;;;;5040435;28;20055;-81
2022/02/06 05:28:27;;;;;;;33.72;5.25;;;8.30;99.90;;;;;;5029586;28;20048;-81
2022/02/06 05:31:05;;;;;;;35.05;5.80;;;8.30;99.90;;;;;;5044203;28;20140;-82
2022/02/06 05:33:31;;;;;;;30.65;4.97;;;8.30;99.90;;;;;;5060760;28;20151;-81
2022/02/06 05:35:57;;;;;;;26.63;4.95;;;8.30;99.90;;;;;;5027408;28;20733;-81
2022/02/06 05:38:23;;;;;;;26.23;4.15;;;8.30;99.90;;;;;;5024703;28;20455;-82
2022/02/06 05:40:49;;;;;;;38.17;6.13;;;8.30;99.90;;;;;;5030927;28;20036;-82
2022/02/06 05:43:14;;;;;;;27.83;4.22;;;8.30;99.90;;;;;;5029998;28;20033;-81
2022/02/06 05:45:40;;;;;;;27.52;4.47;;;8.30;99.90;;;;;;5049845;28;20222;-82
2022/02/06 05:48:06;;;;;;;24.70;4.60;;;8.30;99.90;;;;;;5030532;28;20098;-82
2022/02/06 05:50:32;;;;;;;28.00;4.53;;;8.30;99.90;;;;;;5026608;28;20040;-82
2022/02/06 05:52:58;;;;;;;29.42;4.40;;;8.30;99.90;;;;;;5027495;28;20055;-82
2022/02/06 05:55:23;;;;;;;26.55;3.58;;;8.40;99.90;;;;;;5023691;28;20037;-82
2022/02/06 05:57:49;;;;;;;32.85;4.93;;;8.30;99.90;;;;;;5031283;28;20075;-82
2022/02/06 06:00:15;;;;;;;28.02;4.25;;;8.30;99.90;;;;;;5041769;28;20036;-82
2022/02/06 06:02:40;;;;;;;23.88;3.42;;;8.30;99.90;;;;;;5039938;28;20507;-82
2022/02/06 06:05:06;;;;;;;22.77;3.63;;;8.30;99.90;;;;;;5029163;28;20032;-82
2022/02/06 06:07:32;;;;;;;21.30;4.10;;;8.30;99.90;;;;;;5031323;28;20060;-81
2022/02/06 06:09:58;;;;;;;23.25;4.57;;;8.30;99.90;;;;;;5042583;28;20044;-81
2022/02/06 06:12:24;;;;;;;24.30;3.95;;;8.30;99.90;;;;;;5039149;28;20044;-82
2022/02/06 06:14:49;;;;;;;25.73;3.63;;;8.30;99.90;;;;;;5027306;28;20040;-82
2022/02/06 06:17:15;;;;;;;28.17;5.40;;;8.30;99.90;;;;;;5021170;28;20041;-81
2022/02/06 06:19:47;;;;;;;29.38;4.18;;;8.30;99.90;;;;;;5023506;28;20041;-82
2022/02/06 06:22:13;;;;;;;25.13;4.18;;;8.30;99.90;;;;;;5024193;28;20040;-82
2022/02/06 06:24:45;;;;;;;28.20;5.53;;;8.30;99.90;;;;;;5023315;28;20044;-82
2022/02/06 06:27:14;;;;;;;29.38;4.70;;;8.30;99.90;;;;;;5024270;28;20068;-81
2022/02/06 06:29:40;;;;;;;27.65;4.28;;;8.20;99.90;;;;;;5024301;28;20221;-82
2022/02/06 06:32:06;;;;;;;25.13;4.03;;;8.30;99.90;;;;;;5049580;28;20036;-81
2022/02/06 06:34:31;;;;;;;25.00;4.75;;;8.30;99.90;;;;;;5022907;28;20045;-82
2022/02/06 06:36:57;;;;;;;23.40;4.70;;;8.30;99.90;;;;;;5026241;28;20091;-81
2022/02/06 06:39:35;;;;;;;24.73;3.42;;;8.30;99.90;;;;;;5025446;28;20040;-83
2022/02/06 06:42:02;;;;;;;26.00;3.83;;;8.30;99.90;;;;;;5025606;28;20049;-84
2022/02/06 06:44:27;;;;;;;18.98;4.38;;;8.30;99.90;;;;;;5022459;28;20086;-83
2022/02/06 06:46:53;;;;;;;23.45;3.50;;;8.30;99.90;;;;;;5024587;28;20061;-84
2022/02/06 06:49:19;;;;;;;23.75;3.85;;;8.30;99.90;;;;;;5022618;28;20077;-83
2022/02/06 06:51:45;;;;;;;27.52;3.92;;;8.30;99.90;;;;;;5043173;28;20040;-84
2022/02/06 06:54:15;;;;;;;21.30;3.30;;;8.30;99.90;;;;;;5024035;28;20410;-83
2022/02/06 06:56:50;;;;;;;26.80;3.92;;;8.30;99.90;;;;;;5024599;28;20111;-83
2022/02/06 06:59:42;;;;;;;24.42;3.53;;;8.30;99.90;;;;;;5029627;28;20060;-84
2022/02/06 07:04:53;;;;;;;25.60;3.65;;;8.30;99.90;;;;;;5039355;28;20076;-83
2022/02/06 07:07:19;;;;;;;24.10;3.35;;;8.30;99.90;;;;;;5038655;28;20143;-84
2022/02/06 07:09:45;;;;;;;35.35;3.95;;;8.30;99.90;;;;;;5039596;28;20127;-81
2022/02/06 07:12:13;;;;;;;22.63;3.38;;;8.30;99.90;;;;;;5023088;28;20036;-81
2022/02/06 07:14:40;;;;;;;22.98;3.33;;;8.30;99.90;;;;;;5041171;28;20071;-81
2022/02/06 07:17:05;;;;;;;25.80;3.92;;;8.40;99.90;;;;;;5036383;28;21367;-81
2022/02/06 07:19:31;;;;;;;26.35;3.45;;;8.40;99.90;;;;;;5024966;28;20036;-81
2022/02/06 07:21:57;;;;;;;26.67;4.22;;;8.30;99.90;;;;;;5041236;28;20047;-81
2022/02/06 07:24:26;;;;;;;21.50;4.03;;;8.40;99.90;;;;;;5025638;28;20056;-82
2022/02/06 07:26:54;;;;;;;19.63;3.45;;;8.40;99.90;;;;;;5026764;28;20121;-82
2022/02/06 07:29:20;;;;;;;23.40;3.83;;;8.40;99.90;;;;;;5025992;28;20356;-81
2022/02/06 07:31:47;;;;;;;20.25;4.20;;;8.40;99.90;;;;;;5038274;28;20044;-82
2022/02/06 07:34:12;;;;;;;24.42;3.72;;;7.90;99.90;;;;;;5035845;28;20032;-84
2022/02/06 07:36:38;;;;;;;26.02;4.20;;;8.40;99.90;;;;;;5034353;28;20044;-83
2022/02/06 07:39:04;;;;;;;16.42;2.75;;;8.40;99.90;;;;;;5034999;28;20028;-80
2022/02/06 07:41:29;;;;;;;23.20;3.80;;;8.40;99.90;;;;;;5030859;28;20063;-80
2022/02/06 07:43:55;;;;;;;20.48;3.55;;;8.40;99.90;;;;;;5031850;28;20494;-82
2022/02/06 07:46:29;;;;;;;31.75;4.07;;;8.40;99.90;;;;;;5033883;28;20044;-84
2022/02/06 07:49:01;;;;;;;23.95;4.65;;;8.40;99.90;;;;;;5034008;28;20037;-83
2022/02/06 07:51:27;;;;;;;30.02;4.25;;;8.40;99.90;;;;;;5034353;28;20040;-83
2022/02/06 07:53:53;;;;;;;20.95;3.08;;;8.50;99.90;;;;;;5029216;28;20037;-85
2022/02/06 07:56:19;;;;;;;32.03;4.93;;;8.40;99.90;;;;;;5049887;28;20064;-86
2022/02/06 07:58:46;;;;;;;21.15;3.60;;;8.30;99.90;;;;;;5034341;28;20036;-82
2022/02/06 08:01:11;;;;;;;32.35;4.30;;;8.30;99.90;;;;;;5033063;28;20036;-84
2022/02/06 08:03:37;;;;;;;28.35;3.22;;;8.30;99.90;;;;;;5023961;28;20102;-82
2022/02/06 08:06:03;;;;;;;26.65;3.47;;;8.40;99.90;;;;;;5034299;28;20099;-83
2022/02/06 08:08:28;;;;;;;32.90;4.68;;;8.40;99.90;;;;;;5048466;28;20480;-84
2022/02/06 08:11:01;;;;;;;23.55;3.55;;;8.40;99.90;;;;;;5049077;28;20377;-84
2022/02/06 08:13:52;;;;;;;25.80;3.75;;;8.40;99.90;;;;;;5052750;28;20086;-83
2022/02/06 08:16:18;;;;;;;30.88;4.30;;;8.60;99.90;;;;;;5035349;28;20051;-85
2022/02/06 08:19:12;;;;;;;21.35;3.88;;;8.50;99.90;;;;;;5033992;28;20488;-84
2022/02/06 08:21:58;;;;;;;27.13;3.85;;;8.50;99.90;;;;;;5045578;28;20405;-84
2022/02/06 08:24:55;;;;;;;24.45;3.78;;;8.50;99.90;;;;;;5040968;28;20043;-86
2022/02/06 08:28:20;;;;;;;20.52;3.10;;;8.50;99.90;;;;;;4967201;28;20069;-85
2022/02/06 08:31:02;;;;;;;27.98;4.10;;;8.40;99.90;;;;;;4978866;28;20060;-86
2022/02/06 08:33:30;;;;;;;27.17;5.30;;;8.50;99.90;;;;;;5042742;28;20043;-84
2022/02/06 08:36:34;;;;;;;28.63;4.03;;;8.50;99.90;;;;;;5021941;28;20033;-83
2022/02/06 08:39:40;;;;;;;22.88;4.18;;;8.50;99.90;;;;;;5047687;28;20048;-85
2022/02/06 08:42:09;;;;;;;25.38;4.07;;;8.50;99.90;;;;;;5032543;28;20447;-84
2022/02/06 08:44:54;;;;;;;22.13;3.42;;;8.50;99.90;;;;;;5033146;28;20032;-85
2022/02/06 08:47:42;;;;;;;25.70;4.18;;;8.40;99.90;;;;;;4971780;28;20054;-85
2022/02/06 08:50:25;;;;;;;22.13;3.00;;;8.50;99.90;;;;;;4957133;28;20058;-85
2022/02/06 08:52:53;;;;;;;27.48;4.43;;;8.40;99.90;;;;;;5002806;28;20143;-87
2022/02/06 08:55:19;;;;;;;17.45;3.10;;;8.50;99.90;;;;;;5060487;28;20049;-85
2022/02/06 08:57:47;;;;;;;25.77;4.53;;;8.50;99.90;;;;;;5060275;28;20040;-84
2022/02/06 09:00:15;;;;;;;25.05;4.32;;;8.50;99.90;;;;;;5042412;28;20467;-85
2022/02/06 09:02:41;;;;;;;21.70;2.55;;;8.50;99.90;;;;;;5081002;28;20040;-86
2022/02/06 09:05:07;;;;;;;21.88;3.53;;;8.50;99.90;;;;;;5042383;28;20067;-86
2022/02/06 09:07:33;;;;;;;24.45;3.85;;;8.50;99.90;;;;;;5060013;28;20028;-86
2022/02/06 09:10:01;;;;;;;24.88;3.20;;;8.50;99.90;;;;;;5060349;28;20071;-87
2022/02/06 09:12:27;;;;;;;30.42;3.42;;;8.40;99.90;;;;;;5055510;28;20037;-86
2022/02/06 09:14:54;;;;;;;29.42;3.88;;;8.50;99.90;;;;;;5056242;28;20037;-85
2022/02/06 09:17:20;;;;;;;20.25;3.40;;;8.50;99.90;;;;;;5077954;28;20024;-85
2022/02/06 09:20:39;;;;;;;17.67;2.47;;;8.50;99.90;;;;;;5078027;28;20062;-85
2022/02/06 09:23:08;;;;;;;17.60;3.00;;;8.50;99.90;;;;;;5033698;28;20052;-84
2022/02/06 09:25:34;;;;;;;15.45;2.20;;;8.50;99.90;;;;;;5044444;28;20043;-83
2022/02/06 09:28:00;;;;;;;15.57;2.17;;;8.50;99.90;;;;;;5031382;28;20043;-84
2022/02/06 09:30:28;;;;;;;13.10;2.40;;;8.50;99.90;;;;;;5025082;28;20033;-84
2022/02/06 09:35:19;;;;;;;21.92;3.40;;;8.50;99.90;;;;;;5045961;28;20045;-83
2022/02/06 09:37:45;;;;;;;17.15;1.88;;;8.40;99.90;;;;;;5052134;28;20078;-84
2022/02/06 09:40:14;;;;;;;18.80;2.65;;;8.50;99.90;;;;;;5057670;28;20029;-84
2022/02/06 09:42:42;;;;;;;19.17;2.25;;;8.50;99.90;;;;;;5061101;28;20040;-84
2022/02/06 09:45:17;;;;;;;11.38;1.55;;;8.50;99.90;;;;;;5032320;28;20488;-86
2022/02/06 09:47:49;;;;;;;16.13;2.85;;;8.50;99.90;;;;;;5049510;28;20063;-84
2022/02/06 09:50:15;;;;;;;15.35;2.42;;;8.50;99.90;;;;;;5029950;28;20504;-83
2022/02/06 09:52:41;;;;;;;12.55;2.03;;;8.40;99.90;;;;;;5045927;28;20044;-83
2022/02/06 09:55:12;;;;;;;15.32;2.10;;;8.50;99.90;;;;;;5029106;28;20085;-83
2022/02/06 10:00:21;;;;;;;12.77;1.98;;;8.50;99.90;;;;;;5047147;28;20037;-83
2022/02/06 10:02:51;;;;;;;10.00;1.88;;;8.50;99.90;;;;;;5051136;28;20496;-83
2022/02/06 10:05:17;;;;;;;13.45;2.50;;;8.60;99.90;;;;;;5046381;28;20047;-83
2022/02/06 10:07:51;;;;;;;11.35;1.85;;;8.60;99.90;;;;;;5029168;28;20365;-82
2022/02/06 10:10:19;;;;;;;13.93;2.35;;;8.60;99.90;;;;;;5036183;28;20048;-82
2022/02/06 10:12:45;;;;;;;7.57;1.27;;;8.60;99.90;;;;;;5034271;28;20052;-83
2022/02/06 10:15:21;;;;;;;10.77;1.75;;;8.70;99.90;;;;;;5034541;28;20041;-82
2022/02/06 10:17:49;;;;;;;8.85;1.33;;;8.60;99.90;;;;;;5034029;28;20040;-83
2022/02/06 10:20:23;;;;;;;7.13;1.33;;;8.70;99.90;;;;;;5035927;28;20045;-83
2022/02/06 10:22:56;;;;;;;10.60;1.30;;;8.70;99.90;;;;;;5034090;28;20044;-83
2022/02/06 10:25:22;;;;;;;12.00;1.75;;;8.70;99.90;;;;;;5028736;28;20086;-85
2022/02/06 10:30:52;;;;;;;15.02;2.40;;;8.70;99.90;;;;;;5045622;28;20139;-85
2022/02/06 10:33:22;;;;;;;12.55;2.33;;;8.10;99.90;;;;;;5048858;28;20554;-84
2022/02/06 10:35:53;;;;;;;8.55;1.73;;;8.70;99.90;;;;;;5028719;28;20045;-85
2022/02/06 10:38:21;;;;;;;11.55;1.58;;;8.70;99.90;;;;;;5035670;28;20072;-86
2022/02/06 10:41:11;;;;;;;15.32;1.90;;;9.00;99.90;;;;;;5029312;28;20048;-85
2022/02/06 10:43:39;;;;;;;14.82;2.65;;;8.70;99.90;;;;;;5031953;28;20091;-86
2022/02/06 10:46:12;;;;;;;14.20;1.73;;;8.70;99.90;;;;;;5031860;28;20133;-84
2022/02/06 10:48:52;;;;;;;9.80;0.73;;;8.70;99.90;;;;;;5040892;28;20408;-85
2022/02/06 10:51:37;;;;;;;3.65;0.22;;;8.70;99.90;;;;;;5059869;28;20075;-87
2022/02/06 10:54:07;;;;;;;4.15;0.20;;;8.20;99.90;;;;;;5047972;28;20041;-88
2022/02/06 10:56:34;;;;;;;3.28;0.28;;;7.70;99.90;;;;;;5046501;28;20040;-87
2022/02/06 10:59:06;;;;;;;2.00;0.10;;;7.40;99.90;;;;;;5048172;28;20072;-84
2022/02/06 11:01:36;;;;;;;1.40;0.20;;;7.20;99.90;;;;;;5063359;28;20063;-87
2022/02/06 11:04:16;;;;;;;2.47;0.20;;;7.00;99.90;;;;;;5049987;28;20048;-86
2022/02/06 11:07:04;;;;;;;0.55;0.50;;;6.90;99.90;;;;;;5057899;28;20052;-85
2022/02/06 11:09:31;;;;;;;2.95;0.52;;;6.80;99.90;;;;;;5046256;28;20056;-85
2022/02/06 11:12:03;;;;;;;2.97;0.20;;;6.70;99.90;;;;;;5036534;28;20086;-87
2022/02/06 11:14:31;;;;;;;2.33;0.20;;;6.80;99.90;;;;;;5048074;28;20044;-85
2022/02/06 11:16:58;;;;;;;0.80;0.20;;;6.60;99.90;;;;;;5045301;28;20111;-85
2022/02/06 11:19:24;;;;;;;2.75;0.20;;;6.50;99.90;;;;;;5053167;28;20055;-85
2022/02/06 11:22:10;;;;;;;2.70;0.20;;;6.50;99.90;;;;;;5052432;28;20044;-85
2022/02/06 11:24:37;;;;;;;;;;;6.50;99.90;;;;;;5066626;28;20032;-85
2022/02/06 11:27:07;;;;;;;2.28;0.32;;;6.50;99.90;;;;;;5067292;28;19947;-86
2022/02/06 11:29:33;;;;;;;3.08;0.20;;;6.50;99.90;;;;;;5046481;28;20674;-85
2022/02/06 11:31:59;;;;;;;3.15;0.30;;;6.50;99.90;;;;;;5050033;28;20044;-85
2022/02/06 11:34:25;;;;;;;3.33;0.32;;;6.50;99.90;;;;;;5067248;28;20042;-84
2022/02/06 11:43:48;;;;;;;3.22;0.30;;;6.50;99.90;;;;;;5063765;28;20063;-83
2022/02/06 11:45:48;;;;;;;3.35;0.52;;;6.60;99.90;;;;;;5048350;28;20040;-85
2022/02/06 11:48:17;;;;;;;7.55;1.00;;;6.60;99.90;;;;;;5063676;28;20071;-85
2022/02/06 11:50:50;;;;;;;2.05;0.30;;;6.70;99.90;;;;;;5043847;28;20428;-85
2022/02/06 11:53:39;;;;;;;1.95;0.20;;;7.40;99.90;;;;;;5028751;28;20074;-83
2022/02/06 11:56:36;;;;;;;3.38;0.30;;;6.60;99.90;;;;;;5063294;28;20102;-84
2022/02/06 11:59:12;;;;;;;2.30;0.20;;;6.60;99.90;;;;;;5025326;28;20036;-84
2022/02/06 12:01:42;;;;;;;4.00;0.30;;;6.70;99.90;;;;;;5058072;28;20484;-84
2022/02/06 12:04:20;;;;;;;2.28;0.95;;;6.70;99.90;;;;;;5027735;28;20155;-86
2022/02/06 12:06:49;;;;;;;4.32;0.25;;;6.70;99.90;;;;;;5040300;28;20435;-85
2022/02/06 12:09:23;;;;;;;3.08;0.43;;;6.70;99.90;;;;;;5058286;28;20127;-86
2022/02/06 12:12:17;;;;;;;5.13;0.30;;;6.70;99.90;;;;;;5063037;28;20653;-86
2022/02/06 12:14:47;;;;;;;7.93;0.35;;;6.70;99.90;;;;;;5060251;28;20602;-85
2022/02/06 12:19:41;;;;;;;7.80;0.50;;;6.70;99.90;;;;;;5042421;28;20048;-84
2022/02/06 12:22:26;;;;;;;3.75;0.22;;;6.70;99.90;;;;;;5046675;28;20051;-86
2022/02/06 12:25:17;;;;;;;4.60;0.30;;;6.70;99.90;;;;;;5064239;28;20078;-86
2022/02/06 12:27:43;;;;;;;2.38;0.38;;;6.70;99.90;;;;;;5044750;28;20111;-86
2022/02/06 12:38:22;;;;;;;6.15;0.50;;;6.80;99.90;;;;;;5021193;28;20045;-85
2022/02/06 12:41:44;;;;;;;4.38;0.40;;;6.80;99.90;;;;;;5018341;28;20492;-87
2022/02/06 12:44:15;;;;;;;2.88;0.20;;;6.80;99.90;;;;;;5020741;28;20746;-86
2022/02/06 12:46:47;;;;;;;6.50;0.65;;;6.80;99.90;;;;;;5007802;28;20112;-86
2022/02/06 12:49:20;;;;;;;9.15;0.70;;;6.80;99.90;;;;;;5048045;28;20790;-83
2022/02/06 12:51:57;;;;;;;3.83;0.60;;;6.80;99.90;;;;;;5051694;28;20040;-84
2022/02/06 12:54:24;;;;;;;6.22;0.80;;;6.90;99.90;;;;;;5018916;28;20037;-84
2022/02/06 12:56:54;;;;;;;5.38;0.40;;;6.90;99.90;;;;;;5030488;28;20930;-84
2022/02/06 12:59:34;;;;;;;7.95;0.55;;;6.90;99.90;;;;;;5035115;28;20032;-86
2022/02/06 13:02:00;;;;;;;8.02;0.43;;;7.00;99.90;;;;;;5033318;28;20094;-85
2022/02/06 13:04:29;;;;;;;9.18;0.68;;;7.30;99.90;;;;;;5030303;28;20028;-84
2022/02/06 13:07:01;;;;;;;9.50;0.60;;;7.00;99.90;;;;;;5026806;28;20044;-84
2022/02/06 13:09:32;;;;;;;8.23;0.57;;;7.00;99.90;;;;;;5028714;28;20036;-84
2022/02/06 13:12:09;;;;;;;8.00;0.50;;;7.00;99.90;;;;;;5031970;28;20519;-84
2022/02/06 13:33:54;;;;;;;12.93;1.05;;;7.10;99.90;;;;;;5045291;28;20037;-85
2022/02/06 13:36:45;;;;;;;8.10;0.73;;;7.20;99.90;;;;;;5025012;28;20033;-85
2022/02/06 13:39:35;;;;;;;8.65;0.75;;;7.20;99.90;;;;;;5050122;28;20052;-85
2022/02/06 13:42:14;;;;;;;9.70;1.30;;;7.30;99.90;;;;;;5032067;28;20107;-84
2022/02/06 13:44:41;;;;;;;13.30;1.00;;;7.30;99.90;;;;;;5056193;28;20063;-85
2022/02/06 13:47:08;;;;;;;15.70;1.20;;;7.40;99.90;;;;;;5032032;28;20105;-85
2022/02/06 13:49:45;;;;;;;7.57;0.95;;;7.50;99.90;;;;;;5032074;28;20052;-84
2022/02/06 13:52:12;;;;;;;12.10;1.15;;;7.50;99.90;;;;;;5032816;28;20044;-84
2022/02/06 13:54:41;;;;;;;7.60;0.88;;;8.80;99.90;;;;;;5029962;28;20052;-85
2022/02/06 13:57:08;;;;;;;6.20;0.95;;;7.70;99.90;;;;;;5057439;28;20568;-84
2022/02/06 13:59:43;;;;;;;8.35;1.15;;;7.70;99.90;;;;;;5042505;28;20083;-85
2022/02/06 14:02:11;;;;;;;13.90;1.42;;;7.80;99.90;;;;;;5029839;28;20098;-84
2022/02/06 14:04:43;;;;;;;12.55;1.38;;;7.80;99.90;;;;;;5026882;28;20083;-85
2022/02/06 14:07:14;;;;;;;11.95;2.03;;;7.80;99.90;;;;;;5033891;28;20051;-84
2022/02/06 14:12:09;;;;;;;13.20;1.40;;;7.90;99.90;;;;;;5044559;28;20116;-86
2022/02/06 14:14:46;;;;;;;9.68;1.30;;;7.90;99.90;;;;;;5060809;28;20527;-86
2022/02/06 14:17:22;;;;;;;7.55;1.40;;;7.90;99.90;;;;;;5059984;28;20082;-85
2022/02/06 14:19:49;;;;;;;11.32;1.30;;;7.90;99.90;;;;;;5042606;28;20127;-85
2022/02/06 14:22:48;;;;;;;9.85;0.98;;;7.90;99.90;;;;;;5056512;28;20075;-84
2022/02/06 14:25:30;;;;;;;7.53;1.20;;;7.90;99.90;;;;;;5021123;28;20060;-85
2022/02/06 14:27:57;;;;;;;12.88;1.42;;;8.00;99.90;;;;;;5042616;28;20041;-85
2022/02/06 14:30:35;;;;;;;7.90;1.08;;;8.00;99.90;;;;;;5063082;28;20059;-85
2022/02/06 14:33:03;;;;;;;10.90;1.42;;;8.00;99.90;;;;;;5058084;28;20059;-84
2022/02/06 14:35:49;;;;;;;13.20;1.55;;;8.10;99.90;;;;;;5062993;28;20049;-87
2022/02/06 14:38:29;;;;;;;14.95;2.00;;;8.00;99.90;;;;;;5069823;28;20045;-85
2022/02/06 14:44:08;;;;;;;12.13;1.48;;;7.90;99.90;;;;;;5048021;28;20052;-84
2022/02/06 14:46:35;;;;;;;13.50;2.08;;;7.80;99.90;;;;;;5028165;28;20105;-84
2022/02/06 14:49:07;;;;;;;12.50;2.28;;;7.90;99.90;;;;;;5073687;28;20123;-85
2022/02/06 14:51:35;;;;;;;13.63;1.85;;;7.90;99.90;;;;;;5065063;28;20037;-84
2022/02/06 14:54:04;;;;;;;15.80;1.70;;;7.90;99.90;;;;;;5059937;28;20082;-84
2022/02/06 14:56:31;;;;;;;9.60;1.40;;;7.90;99.90;;;;;;5046001;28;20044;-84
2022/02/06 14:58:59;;;;;;;17.15;2.47;;;8.00;99.90;;;;;;5029417;28;20040;-84
2022/02/06 15:01:25;;;;;;;10.43;1.50;;;7.90;99.90;;;;;;5045940;28;20330;-84
2022/02/06 15:03:51;;;;;;;14.45;1.70;;;7.80;99.90;;;;;;5041776;28;20040;-84
2022/02/06 15:06:17;;;;;;;10.45;1.20;;;7.90;99.90;;;;;;5030550;28;20036;-84
2022/02/06 15:09:22;;;;;;;12.73;2.25;;;7.80;99.90;;;;;;5062694;28;20032;-85
2022/02/06 15:11:48;;;;;;;13.48;1.45;;;7.80;99.90;;;;;;5034933;28;20037;-83
2022/02/06 15:14:20;;;;;;;11.95;1.60;;;7.70;99.90;;;;;;5061818;28;20037;-84
2022/02/06 15:16:48;;;;;;;13.27;1.63;;;7.70;99.90;;;;;;5025350;28;20049;-84
2022/02/06 15:19:17;;;;;;;10.30;1.60;;;7.70;99.90;;;;;;5027046;28;20399;-84
2022/02/06 15:21:43;;;;;;;14.55;2.13;;;7.70;99.90;;;;;;5028530;28;20119;-84
2022/02/06 15:24:12;;;;;;;8.68;1.02;;;7.90;99.90;;;;;;5042917;28;20048;-85
2022/02/06 15:26:38;;;;;;;11.88;1.67;;;7.60;99.90;;;;;;5057449;28;20048;-83
2022/02/06 15:29:04;;;;;;;11.38;1.40;;;7.60;99.90;;;;;;5045575;28;20036;-85
2022/02/06 15:31:30;;;;;;;10.88;1.65;;;7.50;99.90;;;;;;5027409;28;20060;-86
2022/02/06 15:33:57;;;;;;;12.20;1.55;;;7.60;99.90;;;;;;5057031;28;20036;-85
2022/02/06 15:36:25;;;;;;;9.90;1.77;;;7.60;99.90;;;;;;5029216;28;20434;-83
2022/02/06 15:38:51;;;;;;;17.27;2.72;;;7.50;99.90;;;;;;5026601;28;20163;-84
2022/02/06 15:41:28;;;;;;;12.57;2.10;;;7.50;99.90;;;;;;5050193;28;20163;-86
2022/02/06 15:44:24;;;;;;;17.70;2.00;;;7.40;99.90;;;;;;5049658;28;20072;-86
2022/02/06 15:46:50;;;;;;;14.80;2.13;;;7.40;99.90;;;;;;5049462;28;20050;-84
2022/02/06 15:49:16;;;;;;;14.10;2.35;;;7.40;99.90;;;;;;5028385;28;20044;-83
2022/02/06 15:51:42;;;;;;;13.30;2.20;;;7.30;99.90;;;;;;5046749;28;20032;-85
2022/02/06 15:54:07;;;;;;;20.15;2.15;;;7.20;99.90;;;;;;5027478;28;20059;-82